sensor_id;sensor_type;location;lat;lon;timestamp;P1;durP1;ratioP1;P2;durP2;ratioP2
29330;SDS011;16331;52.528;13.342;2023-08-12T00:00:01;5.78;;;3.20;;
29330;SDS011;16331;52.528;13.342;2023-08-12T00:02:39;6.68;;;3.30;;
29330;SDS011;16331;52.528;13.342;2023-08-12T00:05:06;4.97;;;3.17;;
29330;SDS011;16331;52.528;13.342;2023-08-12T00:07:33;8.30;;;3.65;;
29330;SDS011;16331;52.528;13.342;2023-08-12T00:10:00;10.55;;;3.45;;
29330;SDS011;16331;52.528;13.342;2023-08-12T00:12:29;5.70;;;3.88;;
29330;SDS011;16331;52.528;13.342;2023-08-12T00:14:59;9.77;;;3.45;;
29330;SDS011;16331;52.528;13.342;2023-08-12T00:17:26;5.63;;;3.60;;
29330;SDS011;16331;52.528;13.342;2023-08-12T00:19:52;5.38;;;3.65;;
29330;SDS011;16331;52.528;13.342;2023-08-12T00:22:18;7.45;;;4.43;;
29330;SDS011;16331;52.528;13.342;2023-08-12T00:24:48;6.40;;;3.72;;
29330;SDS011;16331;52.528;13.342;2023-08-12T00:27:14;9.80;;;3.67;;
29330;SDS011;16331;52.528;13.342;2023-08-12T00:29:40;9.10;;;3.70;;
29330;SDS011;16331;52.528;13.342;2023-08-12T00:32:08;6.82;;;3.40;;
29330;SDS011;16331;52.528;13.342;2023-08-12T00:34:34;6.38;;;3.45;;
29330;SDS011;16331;52.528;13.342;2023-08-12T00:37:01;8.52;;;4.28;;
29330;SDS011;16331;52.528;13.342;2023-08-12T00:39:27;4.97;;;3.28;;
29330;SDS011;16331;52.528;13.342;2023-08-12T00:41:53;7.32;;;3.55;;
29330;SDS011;16331;52.528;13.342;2023-08-12T00:44:19;5.57;;;3.70;;
29330;SDS011;16331;52.528;13.342;2023-08-12T00:46:46;7.60;;;3.47;;
29330;SDS011;16331;52.528;13.342;2023-08-12T00:49:12;6.55;;;3.90;;
29330;SDS011;16331;52.528;13.342;2023-08-12T00:51:40;6.20;;;3.55;;
29330;SDS011;16331;52.528;13.342;2023-08-12T00:54:08;7.40;;;4.97;;
29330;SDS011;16331;52.528;13.342;2023-08-12T00:56:38;7.22;;;3.38;;
29330;SDS011;16331;52.528;13.342;2023-08-12T00:59:08;5.05;;;3.40;;
29330;SDS011;16331;52.528;13.342;2023-08-12T01:01:35;5.80;;;3.95;;
29330;SDS011;16331;52.528;13.342;2023-08-12T01:04:05;5.95;;;3.50;;
29330;SDS011;16331;52.528;13.342;2023-08-12T01:06:31;6.50;;;3.17;;
29330;SDS011;16331;52.528;13.342;2023-08-12T01:08:59;6.03;;;3.75;;
29330;SDS011;16331;52.528;13.342;2023-08-12T01:11:32;8.88;;;4.43;;
29330;SDS011;16331;52.528;13.342;2023-08-12T01:16:45;4.18;;;3.28;;
29330;SDS011;16331;52.528;13.342;2023-08-12T01:19:36;8.80;;;3.33;;
29330;SDS011;16331;52.528;13.342;2023-08-12T01:22:03;7.03;;;3.58;;
29330;SDS011;16331;52.528;13.342;2023-08-12T01:24:37;5.68;;;3.92;;
29330;SDS011;16331;52.528;13.342;2023-08-12T01:27:13;3.53;;;2.85;;
29330;SDS011;16331;52.528;13.342;2023-08-12T01:29:41;3.95;;;3.03;;
29330;SDS011;16331;52.528;13.342;2023-08-12T01:32:14;6.00;;;3.30;;
29330;SDS011;16331;52.528;13.342;2023-08-12T01:34:59;4.60;;;3.45;;
29330;SDS011;16331;52.528;13.342;2023-08-12T01:37:27;4.38;;;3.38;;
29330;SDS011;16331;52.528;13.342;2023-08-12T01:39:55;4.82;;;3.55;;
29330;SDS011;16331;52.528;13.342;2023-08-12T01:42:24;8.02;;;4.10;;
29330;SDS011;16331;52.528;13.342;2023-08-12T01:44:50;6.15;;;3.97;;
29330;SDS011;16331;52.528;13.342;2023-08-12T01:47:17;7.13;;;3.38;;
29330;SDS011;16331;52.528;13.342;2023-08-12T01:49:43;5.78;;;3.53;;
29330;SDS011;16331;52.528;13.342;2023-08-12T01:52:09;6.82;;;3.63;;
29330;SDS011;16331;52.528;13.342;2023-08-12T01:54:35;6.80;;;3.60;;
29330;SDS011;16331;52.528;13.342;2023-08-12T01:57:02;5.22;;;3.58;;
29330;SDS011;16331;52.528;13.342;2023-08-12T01:59:33;9.07;;;3.72;;
29330;SDS011;16331;52.528;13.342;2023-08-12T02:02:01;6.40;;;3.58;;
29330;SDS011;16331;52.528;13.342;2023-08-12T02:04:27;4.43;;;3.20;;
29330;SDS011;16331;52.528;13.342;2023-08-12T02:06:54;8.05;;;4.18;;
29330;SDS011;16331;52.528;13.342;2023-08-12T02:09:20;4.97;;;3.53;;
29330;SDS011;16331;52.528;13.342;2023-08-12T02:11:48;5.88;;;3.17;;
29330;SDS011;16331;52.528;13.342;2023-08-12T02:14:15;7.38;;;3.30;;
29330;SDS011;16331;52.528;13.342;2023-08-12T02:16:41;5.53;;;3.75;;
29330;SDS011;16331;52.528;13.342;2023-08-12T02:19:07;6.40;;;3.67;;
29330;SDS011;16331;52.528;13.342;2023-08-12T02:21:33;6.50;;;3.70;;
29330;SDS011;16331;52.528;13.342;2023-08-12T02:23:59;4.68;;;3.65;;
29330;SDS011;16331;52.528;13.342;2023-08-12T02:26:25;9.45;;;4.47;;
29330;SDS011;16331;52.528;13.342;2023-08-12T02:28:51;6.15;;;3.65;;
29330;SDS011;16331;52.528;13.342;2023-08-12T02:31:18;10.75;;;4.03;;
29330;SDS011;16331;52.528;13.342;2023-08-12T02:33:44;5.22;;;3.50;;
29330;SDS011;16331;52.528;13.342;2023-08-12T02:36:10;5.63;;;3.65;;
29330;SDS011;16331;52.528;13.342;2023-08-12T02:38:36;4.72;;;3.72;;
29330;SDS011;16331;52.528;13.342;2023-08-12T02:41:02;5.85;;;3.92;;
29330;SDS011;16331;52.528;13.342;2023-08-12T02:43:30;6.88;;;3.53;;
29330;SDS011;16331;52.528;13.342;2023-08-12T02:45:57;6.32;;;3.95;;
29330;SDS011;16331;52.528;13.342;2023-08-12T02:48:24;7.95;;;3.78;;
29330;SDS011;16331;52.528;13.342;2023-08-12T02:50:51;5.18;;;3.63;;
29330;SDS011;16331;52.528;13.342;2023-08-12T02:53:19;9.27;;;4.05;;
29330;SDS011;16331;52.528;13.342;2023-08-12T02:55:45;5.40;;;3.45;;
29330;SDS011;16331;52.528;13.342;2023-08-12T02:58:11;6.22;;;4.07;;
29330;SDS011;16331;52.528;13.342;2023-08-12T03:00:40;5.13;;;3.88;;
29330;SDS011;16331;52.528;13.342;2023-08-12T03:03:09;4.50;;;3.58;;
29330;SDS011;16331;52.528;13.342;2023-08-12T03:05:36;8.95;;;3.63;;
29330;SDS011;16331;52.528;13.342;2023-08-12T03:08:02;7.57;;;4.10;;
29330;SDS011;16331;52.528;13.342;2023-08-12T03:10:29;5.47;;;3.80;;
29330;SDS011;16331;52.528;13.342;2023-08-12T03:12:55;5.20;;;3.75;;
29330;SDS011;16331;52.528;13.342;2023-08-12T03:15:21;8.20;;;4.30;;
29330;SDS011;16331;52.528;13.342;2023-08-12T03:17:47;11.65;;;3.70;;
29330;SDS011;16331;52.528;13.342;2023-08-12T03:20:14;7.07;;;4.03;;
29330;SDS011;16331;52.528;13.342;2023-08-12T03:22:40;5.45;;;3.92;;
29330;SDS011;16331;52.528;13.342;2023-08-12T03:25:06;5.13;;;4.22;;
29330;SDS011;16331;52.528;13.342;2023-08-12T03:27:32;11.98;;;4.00;;
29330;SDS011;16331;52.528;13.342;2023-08-12T03:29:58;4.53;;;3.78;;
29330;SDS011;16331;52.528;13.342;2023-08-12T03:32:25;6.00;;;4.07;;
29330;SDS011;16331;52.528;13.342;2023-08-12T03:34:51;5.55;;;3.88;;
29330;SDS011;16331;52.528;13.342;2023-08-12T03:37:18;8.30;;;4.25;;
29330;SDS011;16331;52.528;13.342;2023-08-12T03:39:44;7.88;;;3.60;;
29330;SDS011;16331;52.528;13.342;2023-08-12T03:42:10;11.57;;;4.22;;
29330;SDS011;16331;52.528;13.342;2023-08-12T03:44:36;6.50;;;3.60;;
29330;SDS011;16331;52.528;13.342;2023-08-12T03:47:02;5.78;;;4.05;;
29330;SDS011;16331;52.528;13.342;2023-08-12T03:49:28;6.40;;;4.00;;
29330;SDS011;16331;52.528;13.342;2023-08-12T03:51:54;9.15;;;4.07;;
29330;SDS011;16331;52.528;13.342;2023-08-12T03:54:20;10.85;;;4.50;;
29330;SDS011;16331;52.528;13.342;2023-08-12T03:56:46;6.35;;;4.22;;
29330;SDS011;16331;52.528;13.342;2023-08-12T03:59:15;4.68;;;3.95;;
29330;SDS011;16331;52.528;13.342;2023-08-12T04:01:41;10.20;;;4.13;;
29330;SDS011;16331;52.528;13.342;2023-08-12T04:04:07;7.88;;;4.20;;
29330;SDS011;16331;52.528;13.342;2023-08-12T04:06:33;9.50;;;3.83;;
29330;SDS011;16331;52.528;13.342;2023-08-12T04:09:00;4.28;;;3.83;;
29330;SDS011;16331;52.528;13.342;2023-08-12T04:11:26;8.32;;;4.00;;
29330;SDS011;16331;52.528;13.342;2023-08-12T04:13:52;7.28;;;3.70;;
29330;SDS011;16331;52.528;13.342;2023-08-12T04:16:18;5.78;;;3.97;;
29330;SDS011;16331;52.528;13.342;2023-08-12T04:18:44;13.43;;;4.38;;
29330;SDS011;16331;52.528;13.342;2023-08-12T04:21:10;7.03;;;3.88;;
29330;SDS011;16331;52.528;13.342;2023-08-12T04:23:37;7.95;;;4.30;;
29330;SDS011;16331;52.528;13.342;2023-08-12T04:26:03;7.30;;;4.20;;
29330;SDS011;16331;52.528;13.342;2023-08-12T04:28:29;5.57;;;3.95;;
29330;SDS011;16331;52.528;13.342;2023-08-12T04:30:55;9.10;;;3.70;;
29330;SDS011;16331;52.528;13.342;2023-08-12T04:33:22;4.65;;;3.55;;
29330;SDS011;16331;52.528;13.342;2023-08-12T04:35:48;7.80;;;3.67;;
29330;SDS011;16331;52.528;13.342;2023-08-12T04:38:15;8.23;;;3.97;;
29330;SDS011;16331;52.528;13.342;2023-08-12T04:40:41;6.25;;;3.78;;
29330;SDS011;16331;52.528;13.342;2023-08-12T04:43:09;6.40;;;3.80;;
29330;SDS011;16331;52.528;13.342;2023-08-12T04:45:38;5.90;;;4.32;;
29330;SDS011;16331;52.528;13.342;2023-08-12T04:48:05;6.55;;;3.88;;
29330;SDS011;16331;52.528;13.342;2023-08-12T04:50:33;7.53;;;3.88;;
29330;SDS011;16331;52.528;13.342;2023-08-12T04:53:01;6.50;;;3.78;;
29330;SDS011;16331;52.528;13.342;2023-08-12T04:55:27;6.32;;;3.67;;
29330;SDS011;16331;52.528;13.342;2023-08-12T04:57:53;5.30;;;3.67;;
29330;SDS011;16331;52.528;13.342;2023-08-12T05:00:19;4.97;;;3.45;;
29330;SDS011;16331;52.528;13.342;2023-08-12T05:02:47;7.18;;;3.90;;
29330;SDS011;16331;52.528;13.342;2023-08-12T05:05:13;5.22;;;3.50;;
29330;SDS011;16331;52.528;13.342;2023-08-12T05:07:39;5.25;;;3.55;;
29330;SDS011;16331;52.528;13.342;2023-08-12T05:10:05;7.35;;;4.25;;
29330;SDS011;16331;52.528;13.342;2023-08-12T05:12:32;4.82;;;3.75;;
29330;SDS011;16331;52.528;13.342;2023-08-12T05:14:58;6.70;;;3.47;;
29330;SDS011;16331;52.528;13.342;2023-08-12T05:17:24;5.35;;;3.22;;
29330;SDS011;16331;52.528;13.342;2023-08-12T05:19:50;6.57;;;3.55;;
29330;SDS011;16331;52.528;13.342;2023-08-12T05:22:18;4.10;;;3.03;;
29330;SDS011;16331;52.528;13.342;2023-08-12T05:24:44;5.10;;;3.33;;
29330;SDS011;16331;52.528;13.342;2023-08-12T05:27:10;8.20;;;3.08;;
29330;SDS011;16331;52.528;13.342;2023-08-12T05:29:36;5.78;;;2.83;;
29330;SDS011;16331;52.528;13.342;2023-08-12T05:32:02;5.35;;;3.40;;
29330;SDS011;16331;52.528;13.342;2023-08-12T05:34:29;7.13;;;3.05;;
29330;SDS011;16331;52.528;13.342;2023-08-12T05:36:55;7.25;;;3.30;;
29330;SDS011;16331;52.528;13.342;2023-08-12T05:39:22;6.63;;;3.42;;
29330;SDS011;16331;52.528;13.342;2023-08-12T05:41:49;6.07;;;3.22;;
29330;SDS011;16331;52.528;13.342;2023-08-12T05:44:17;5.22;;;3.20;;
29330;SDS011;16331;52.528;13.342;2023-08-12T05:46:43;13.88;;;3.47;;
29330;SDS011;16331;52.528;13.342;2023-08-12T05:49:09;5.65;;;3.53;;
29330;SDS011;16331;52.528;13.342;2023-08-12T05:51:36;10.55;;;3.50;;
29330;SDS011;16331;52.528;13.342;2023-08-12T05:54:03;3.92;;;2.97;;
29330;SDS011;16331;52.528;13.342;2023-08-12T05:56:29;6.43;;;2.97;;
29330;SDS011;16331;52.528;13.342;2023-08-12T05:58:55;5.50;;;2.92;;
29330;SDS011;16331;52.528;13.342;2023-08-12T06:01:22;10.20;;;4.10;;
29330;SDS011;16331;52.528;13.342;2023-08-12T06:03:48;6.18;;;3.00;;
29330;SDS011;16331;52.528;13.342;2023-08-12T06:06:14;6.57;;;3.35;;
29330;SDS011;16331;52.528;13.342;2023-08-12T06:08:40;4.18;;;2.97;;
29330;SDS011;16331;52.528;13.342;2023-08-12T06:11:07;5.32;;;3.00;;
29330;SDS011;16331;52.528;13.342;2023-08-12T06:13:33;6.90;;;2.92;;
29330;SDS011;16331;52.528;13.342;2023-08-12T06:16:00;8.68;;;3.00;;
29330;SDS011;16331;52.528;13.342;2023-08-12T06:18:26;5.78;;;2.85;;
29330;SDS011;16331;52.528;13.342;2023-08-12T06:20:53;9.00;;;3.13;;
29330;SDS011;16331;52.528;13.342;2023-08-12T06:23:19;12.20;;;3.45;;
29330;SDS011;16331;52.528;13.342;2023-08-12T06:25:45;5.85;;;3.60;;
29330;SDS011;16331;52.528;13.342;2023-08-12T06:28:11;5.70;;;3.10;;
29330;SDS011;16331;52.528;13.342;2023-08-12T06:30:37;10.70;;;3.10;;
29330;SDS011;16331;52.528;13.342;2023-08-12T06:33:04;7.65;;;3.22;;
29330;SDS011;16331;52.528;13.342;2023-08-12T06:35:32;6.20;;;2.80;;
29330;SDS011;16331;52.528;13.342;2023-08-12T06:37:59;8.25;;;3.47;;
29330;SDS011;16331;52.528;13.342;2023-08-12T06:40:25;4.43;;;3.15;;
29330;SDS011;16331;52.528;13.342;2023-08-12T06:42:53;4.40;;;3.10;;
29330;SDS011;16331;52.528;13.342;2023-08-12T06:45:20;3.35;;;2.70;;
29330;SDS011;16331;52.528;13.342;2023-08-12T06:47:46;9.43;;;2.95;;
29330;SDS011;16331;52.528;13.342;2023-08-12T06:50:12;4.90;;;2.67;;
29330;SDS011;16331;52.528;13.342;2023-08-12T06:52:38;6.40;;;3.03;;
29330;SDS011;16331;52.528;13.342;2023-08-12T06:55:04;6.60;;;2.97;;
29330;SDS011;16331;52.528;13.342;2023-08-12T06:57:30;8.55;;;3.92;;
29330;SDS011;16331;52.528;13.342;2023-08-12T06:59:56;4.55;;;2.80;;
29330;SDS011;16331;52.528;13.342;2023-08-12T07:02:23;6.22;;;3.35;;
29330;SDS011;16331;52.528;13.342;2023-08-12T07:04:49;9.55;;;2.85;;
29330;SDS011;16331;52.528;13.342;2023-08-12T07:07:15;3.70;;;3.00;;
29330;SDS011;16331;52.528;13.342;2023-08-12T07:09:41;5.88;;;3.50;;
29330;SDS011;16331;52.528;13.342;2023-08-12T07:12:07;7.55;;;3.47;;
29330;SDS011;16331;52.528;13.342;2023-08-12T07:14:33;5.93;;;3.03;;
29330;SDS011;16331;52.528;13.342;2023-08-12T07:16:59;13.02;;;2.97;;
29330;SDS011;16331;52.528;13.342;2023-08-12T07:19:25;11.73;;;3.08;;
29330;SDS011;16331;52.528;13.342;2023-08-12T07:21:51;5.63;;;3.10;;
29330;SDS011;16331;52.528;13.342;2023-08-12T07:24:17;7.25;;;2.80;;
29330;SDS011;16331;52.528;13.342;2023-08-12T07:26:45;5.47;;;3.15;;
29330;SDS011;16331;52.528;13.342;2023-08-12T07:29:11;4.80;;;2.72;;
29330;SDS011;16331;52.528;13.342;2023-08-12T07:31:37;11.13;;;3.13;;
29330;SDS011;16331;52.528;13.342;2023-08-12T07:34:06;5.97;;;3.20;;
29330;SDS011;16331;52.528;13.342;2023-08-12T07:36:32;8.40;;;3.55;;
29330;SDS011;16331;52.528;13.342;2023-08-12T07:39:01;7.32;;;3.33;;
29330;SDS011;16331;52.528;13.342;2023-08-12T07:41:27;4.38;;;2.85;;
29330;SDS011;16331;52.528;13.342;2023-08-12T07:43:53;6.00;;;3.17;;
29330;SDS011;16331;52.528;13.342;2023-08-12T07:46:21;4.97;;;2.90;;
29330;SDS011;16331;52.528;13.342;2023-08-12T07:48:50;5.65;;;3.38;;
29330;SDS011;16331;52.528;13.342;2023-08-12T07:51:16;4.63;;;2.60;;
29330;SDS011;16331;52.528;13.342;2023-08-12T07:53:45;8.60;;;2.83;;
29330;SDS011;16331;52.528;13.342;2023-08-12T07:56:11;6.97;;;4.28;;
29330;SDS011;16331;52.528;13.342;2023-08-12T07:58:37;8.25;;;3.28;;
29330;SDS011;16331;52.528;13.342;2023-08-12T08:01:03;4.72;;;2.72;;
29330;SDS011;16331;52.528;13.342;2023-08-12T08:03:30;8.38;;;3.63;;
29330;SDS011;16331;52.528;13.342;2023-08-12T08:05:56;6.60;;;3.28;;
29330;SDS011;16331;52.528;13.342;2023-08-12T08:08:22;4.28;;;2.95;;
29330;SDS011;16331;52.528;13.342;2023-08-12T08:10:50;5.45;;;3.17;;
29330;SDS011;16331;52.528;13.342;2023-08-12T08:13:16;7.78;;;3.47;;
29330;SDS011;16331;52.528;13.342;2023-08-12T08:15:44;4.60;;;3.28;;
29330;SDS011;16331;52.528;13.342;2023-08-12T08:18:10;5.53;;;3.70;;
29330;SDS011;16331;52.528;13.342;2023-08-12T08:20:37;9.88;;;3.72;;
29330;SDS011;16331;52.528;13.342;2023-08-12T08:23:03;11.15;;;3.15;;
29330;SDS011;16331;52.528;13.342;2023-08-12T08:25:29;6.15;;;3.35;;
29330;SDS011;16331;52.528;13.342;2023-08-12T08:27:55;6.95;;;3.25;;
29330;SDS011;16331;52.528;13.342;2023-08-12T08:30:23;6.30;;;3.53;;
29330;SDS011;16331;52.528;13.342;2023-08-12T08:32:50;7.25;;;3.95;;
29330;SDS011;16331;52.528;13.342;2023-08-12T08:35:17;14.20;;;3.95;;
29330;SDS011;16331;52.528;13.342;2023-08-12T08:37:43;8.77;;;4.75;;
29330;SDS011;16331;52.528;13.342;2023-08-12T08:40:09;9.45;;;3.38;;
29330;SDS011;16331;52.528;13.342;2023-08-12T08:42:36;8.30;;;4.07;;
29330;SDS011;16331;52.528;13.342;2023-08-12T08:45:03;5.05;;;3.50;;
29330;SDS011;16331;52.528;13.342;2023-08-12T08:47:35;6.25;;;3.42;;
29330;SDS011;16331;52.528;13.342;2023-08-12T08:50:03;5.32;;;3.28;;
29330;SDS011;16331;52.528;13.342;2023-08-12T08:52:30;8.10;;;3.67;;
29330;SDS011;16331;52.528;13.342;2023-08-12T08:54:58;6.95;;;4.15;;
29330;SDS011;16331;52.528;13.342;2023-08-12T08:57:26;12.52;;;4.65;;
29330;SDS011;16331;52.528;13.342;2023-08-12T08:59:53;32.22;;;5.13;;
29330;SDS011;16331;52.528;13.342;2023-08-12T09:02:19;14.25;;;4.85;;
29330;SDS011;16331;52.528;13.342;2023-08-12T09:04:48;5.93;;;4.03;;
29330;SDS011;16331;52.528;13.342;2023-08-12T09:07:14;8.68;;;4.22;;
29330;SDS011;16331;52.528;13.342;2023-08-12T09:09:42;7.55;;;3.88;;
29330;SDS011;16331;52.528;13.342;2023-08-12T09:14:41;15.48;;;6.07;;
29330;SDS011;16331;52.528;13.342;2023-08-12T09:17:08;12.65;;;4.22;;
29330;SDS011;16331;52.528;13.342;2023-08-12T09:19:35;5.78;;;3.72;;
29330;SDS011;16331;52.528;13.342;2023-08-12T09:22:04;5.35;;;3.50;;
29330;SDS011;16331;52.528;13.342;2023-08-12T09:24:33;12.82;;;3.97;;
29330;SDS011;16331;52.528;13.342;2023-08-12T09:27:03;5.05;;;3.42;;
29330;SDS011;16331;52.528;13.342;2023-08-12T09:29:33;6.90;;;3.40;;
29330;SDS011;16331;52.528;13.342;2023-08-12T09:32:13;7.40;;;3.33;;
29330;SDS011;16331;52.528;13.342;2023-08-12T09:34:47;6.45;;;3.60;;
29330;SDS011;16331;52.528;13.342;2023-08-12T09:37:16;8.00;;;3.53;;
29330;SDS011;16331;52.528;13.342;2023-08-12T09:39:43;7.78;;;3.30;;
29330;SDS011;16331;52.528;13.342;2023-08-12T09:42:10;6.93;;;3.78;;
29330;SDS011;16331;52.528;13.342;2023-08-12T09:44:37;6.60;;;3.92;;
29330;SDS011;16331;52.528;13.342;2023-08-12T09:47:04;6.28;;;3.95;;
29330;SDS011;16331;52.528;13.342;2023-08-12T09:49:33;8.32;;;4.07;;
29330;SDS011;16331;52.528;13.342;2023-08-12T09:52:00;8.95;;;4.03;;
29330;SDS011;16331;52.528;13.342;2023-08-12T09:54:29;5.82;;;3.55;;
29330;SDS011;16331;52.528;13.342;2023-08-12T09:56:57;10.00;;;4.60;;
29330;SDS011;16331;52.528;13.342;2023-08-12T09:59:29;4.43;;;3.33;;
29330;SDS011;16331;52.528;13.342;2023-08-12T10:01:57;7.65;;;3.75;;
29330;SDS011;16331;52.528;13.342;2023-08-12T10:04:29;10.10;;;4.22;;
29330;SDS011;16331;52.528;13.342;2023-08-12T10:07:07;7.00;;;3.80;;
29330;SDS011;16331;52.528;13.342;2023-08-12T10:09:39;7.20;;;3.85;;
29330;SDS011;16331;52.528;13.342;2023-08-12T10:12:07;5.35;;;3.78;;
29330;SDS011;16331;52.528;13.342;2023-08-12T10:14:34;7.20;;;3.95;;
29330;SDS011;16331;52.528;13.342;2023-08-12T10:17:00;8.00;;;3.83;;
29330;SDS011;16331;52.528;13.342;2023-08-12T10:19:27;5.25;;;3.85;;
29330;SDS011;16331;52.528;13.342;2023-08-12T10:21:56;7.75;;;4.22;;
29330;SDS011;16331;52.528;13.342;2023-08-12T10:24:25;7.22;;;3.90;;
29330;SDS011;16331;52.528;13.342;2023-08-12T10:26:52;7.50;;;4.15;;
29330;SDS011;16331;52.528;13.342;2023-08-12T10:29:19;5.55;;;3.42;;
29330;SDS011;16331;52.528;13.342;2023-08-12T10:31:47;8.30;;;3.65;;
29330;SDS011;16331;52.528;13.342;2023-08-12T10:34:18;5.70;;;4.22;;
29330;SDS011;16331;52.528;13.342;2023-08-12T10:36:55;5.47;;;3.47;;
29330;SDS011;16331;52.528;13.342;2023-08-12T10:39:25;6.90;;;4.20;;
29330;SDS011;16331;52.528;13.342;2023-08-12T10:41:56;9.30;;;5.07;;
29330;SDS011;16331;52.528;13.342;2023-08-12T10:44:27;6.35;;;4.28;;
29330;SDS011;16331;52.528;13.342;2023-08-12T10:47:15;6.93;;;3.90;;
29330;SDS011;16331;52.528;13.342;2023-08-12T10:49:47;6.20;;;3.80;;
29330;SDS011;16331;52.528;13.342;2023-08-12T10:52:30;5.53;;;3.72;;
29330;SDS011;16331;52.528;13.342;2023-08-12T10:55:16;5.88;;;3.53;;
29330;SDS011;16331;52.528;13.342;2023-08-12T10:57:50;7.93;;;3.58;;
29330;SDS011;16331;52.528;13.342;2023-08-12T11:00:20;5.88;;;4.05;;
29330;SDS011;16331;52.528;13.342;2023-08-12T11:03:12;5.13;;;3.72;;
29330;SDS011;16331;52.528;13.342;2023-08-12T11:05:40;8.18;;;4.35;;
29330;SDS011;16331;52.528;13.342;2023-08-12T11:08:06;10.65;;;4.22;;
29330;SDS011;16331;52.528;13.342;2023-08-12T11:10:32;11.35;;;4.18;;
29330;SDS011;16331;52.528;13.342;2023-08-12T11:13:00;8.40;;;4.10;;
29330;SDS011;16331;52.528;13.342;2023-08-12T11:15:33;14.10;;;4.07;;
29330;SDS011;16331;52.528;13.342;2023-08-12T11:18:10;8.27;;;3.60;;
29330;SDS011;16331;52.528;13.342;2023-08-12T11:20:41;5.05;;;3.55;;
29330;SDS011;16331;52.528;13.342;2023-08-12T11:23:08;8.38;;;5.22;;
29330;SDS011;16331;52.528;13.342;2023-08-12T11:25:35;6.70;;;4.20;;
29330;SDS011;16331;52.528;13.342;2023-08-12T11:28:06;4.78;;;3.42;;
29330;SDS011;16331;52.528;13.342;2023-08-12T11:30:32;6.65;;;3.30;;
29330;SDS011;16331;52.528;13.342;2023-08-12T11:33:01;6.57;;;3.00;;
29330;SDS011;16331;52.528;13.342;2023-08-12T11:35:28;3.67;;;3.00;;
29330;SDS011;16331;52.528;13.342;2023-08-12T11:37:56;8.95;;;3.45;;
29330;SDS011;16331;52.528;13.342;2023-08-12T11:40:37;8.25;;;2.92;;
29330;SDS011;16331;52.528;13.342;2023-08-12T11:43:04;5.75;;;3.50;;
29330;SDS011;16331;52.528;13.342;2023-08-12T11:45:31;7.15;;;3.10;;
29330;SDS011;16331;52.528;13.342;2023-08-12T11:47:57;5.72;;;3.45;;
29330;SDS011;16331;52.528;13.342;2023-08-12T11:50:24;8.55;;;3.65;;
29330;SDS011;16331;52.528;13.342;2023-08-12T11:52:52;3.85;;;2.95;;
29330;SDS011;16331;52.528;13.342;2023-08-12T11:55:20;10.82;;;3.80;;
29330;SDS011;16331;52.528;13.342;2023-08-12T11:57:47;5.15;;;3.13;;
29330;SDS011;16331;52.528;13.342;2023-08-12T12:00:13;5.78;;;2.90;;
29330;SDS011;16331;52.528;13.342;2023-08-12T12:05:21;3.95;;;2.80;;
29330;SDS011;16331;52.528;13.342;2023-08-12T12:07:49;4.60;;;3.35;;
29330;SDS011;16331;52.528;13.342;2023-08-12T12:12:57;4.88;;;3.20;;
29330;SDS011;16331;52.528;13.342;2023-08-12T12:15:24;4.75;;;3.25;;
29330;SDS011;16331;52.528;13.342;2023-08-12T12:17:53;5.75;;;3.63;;
29330;SDS011;16331;52.528;13.342;2023-08-12T12:20:22;4.80;;;3.17;;
29330;SDS011;16331;52.528;13.342;2023-08-12T12:22:49;4.38;;;3.55;;
29330;SDS011;16331;52.528;13.342;2023-08-12T12:25:15;5.53;;;3.67;;
29330;SDS011;16331;52.528;13.342;2023-08-12T12:27:46;6.25;;;3.58;;
29330;SDS011;16331;52.528;13.342;2023-08-12T12:30:15;5.28;;;3.45;;
29330;SDS011;16331;52.528;13.342;2023-08-12T12:32:43;5.38;;;3.70;;
29330;SDS011;16331;52.528;13.342;2023-08-12T12:35:10;5.78;;;3.88;;
29330;SDS011;16331;52.528;13.342;2023-08-12T12:37:36;9.65;;;4.07;;
29330;SDS011;16331;52.528;13.342;2023-08-12T12:40:06;7.45;;;5.05;;
29330;SDS011;16331;52.528;13.342;2023-08-12T12:42:33;13.40;;;5.15;;
29330;SDS011;16331;52.528;13.342;2023-08-12T12:44:59;7.28;;;4.65;;
29330;SDS011;16331;52.528;13.342;2023-08-12T12:47:26;9.18;;;5.65;;
29330;SDS011;16331;52.528;13.342;2023-08-12T12:49:52;4.47;;;3.70;;
29330;SDS011;16331;52.528;13.342;2023-08-12T12:52:20;10.40;;;4.10;;
29330;SDS011;16331;52.528;13.342;2023-08-12T12:54:46;6.63;;;3.50;;
29330;SDS011;16331;52.528;13.342;2023-08-12T12:57:15;4.60;;;2.78;;
29330;SDS011;16331;52.528;13.342;2023-08-12T12:59:44;4.90;;;2.97;;
29330;SDS011;16331;52.528;13.342;2023-08-12T13:02:10;8.35;;;4.20;;
29330;SDS011;16331;52.528;13.342;2023-08-12T13:04:39;6.13;;;3.40;;
29330;SDS011;16331;52.528;13.342;2023-08-12T13:07:05;3.70;;;2.83;;
29330;SDS011;16331;52.528;13.342;2023-08-12T13:09:34;4.10;;;2.85;;
29330;SDS011;16331;52.528;13.342;2023-08-12T13:12:00;4.70;;;2.58;;
29330;SDS011;16331;52.528;13.342;2023-08-12T13:14:26;7.43;;;3.08;;
29330;SDS011;16331;52.528;13.342;2023-08-12T13:16:55;3.03;;;2.72;;
29330;SDS011;16331;52.528;13.342;2023-08-12T13:19:21;6.45;;;3.30;;
29330;SDS011;16331;52.528;13.342;2023-08-12T13:21:47;9.60;;;3.30;;
29330;SDS011;16331;52.528;13.342;2023-08-12T13:24:13;4.55;;;3.13;;
29330;SDS011;16331;52.528;13.342;2023-08-12T13:26:41;6.53;;;3.35;;
29330;SDS011;16331;52.528;13.342;2023-08-12T13:29:08;4.72;;;3.20;;
29330;SDS011;16331;52.528;13.342;2023-08-12T13:31:34;6.43;;;3.40;;
29330;SDS011;16331;52.528;13.342;2023-08-12T13:34:00;5.60;;;3.50;;
29330;SDS011;16331;52.528;13.342;2023-08-12T13:36:28;4.45;;;3.40;;
29330;SDS011;16331;52.528;13.342;2023-08-12T13:38:55;4.45;;;3.20;;
29330;SDS011;16331;52.528;13.342;2023-08-12T13:41:21;6.53;;;3.53;;
29330;SDS011;16331;52.528;13.342;2023-08-12T13:43:48;6.90;;;3.38;;
29330;SDS011;16331;52.528;13.342;2023-08-12T13:46:16;4.65;;;3.30;;
29330;SDS011;16331;52.528;13.342;2023-08-12T13:48:42;3.58;;;3.03;;
29330;SDS011;16331;52.528;13.342;2023-08-12T13:51:08;6.00;;;3.05;;
29330;SDS011;16331;52.528;13.342;2023-08-12T13:53:35;7.30;;;3.30;;
29330;SDS011;16331;52.528;13.342;2023-08-12T13:56:10;6.45;;;2.83;;
29330;SDS011;16331;52.528;13.342;2023-08-12T13:58:36;6.65;;;3.13;;
29330;SDS011;16331;52.528;13.342;2023-08-12T14:01:02;4.70;;;2.80;;
29330;SDS011;16331;52.528;13.342;2023-08-12T14:03:30;3.78;;;2.53;;
29330;SDS011;16331;52.528;13.342;2023-08-12T14:05:57;4.32;;;2.67;;
29330;SDS011;16331;52.528;13.342;2023-08-12T14:08:23;3.55;;;2.60;;
29330;SDS011;16331;52.528;13.342;2023-08-12T14:10:49;4.10;;;2.75;;
29330;SDS011;16331;52.528;13.342;2023-08-12T14:13:15;5.05;;;2.83;;
29330;SDS011;16331;52.528;13.342;2023-08-12T14:15:43;5.75;;;2.70;;
29330;SDS011;16331;52.528;13.342;2023-08-12T14:18:09;5.43;;;2.63;;
29330;SDS011;16331;52.528;13.342;2023-08-12T14:20:35;4.03;;;2.42;;
29330;SDS011;16331;52.528;13.342;2023-08-12T14:23:06;3.60;;;2.30;;
29330;SDS011;16331;52.528;13.342;2023-08-12T14:25:33;3.20;;;2.20;;
29330;SDS011;16331;52.528;13.342;2023-08-12T14:27:59;3.55;;;2.80;;
29330;SDS011;16331;52.528;13.342;2023-08-12T14:30:26;5.53;;;2.78;;
29330;SDS011;16331;52.528;13.342;2023-08-12T14:32:53;4.22;;;2.90;;
29330;SDS011;16331;52.528;13.342;2023-08-12T14:35:19;3.38;;;2.53;;
29330;SDS011;16331;52.528;13.342;2023-08-12T14:37:45;3.92;;;2.60;;
29330;SDS011;16331;52.528;13.342;2023-08-12T14:40:11;3.45;;;2.55;;
29330;SDS011;16331;52.528;13.342;2023-08-12T14:42:38;2.88;;;2.45;;
29330;SDS011;16331;52.528;13.342;2023-08-12T14:45:05;3.35;;;2.35;;